sensor_id;sensor_type;location;lat;lon;timestamp;P1;durP1;ratioP1;P2;durP2;ratioP2
16862;SDS011;52193;48.216;-1.698;2023-04-25T00:00:29;5.70;;;3.40;;
16862;SDS011;52193;48.216;-1.698;2023-04-25T00:02:56;5.18;;;3.17;;
16862;SDS011;52193;48.216;-1.698;2023-04-25T00:05:24;3.40;;;2.72;;
16862;SDS011;52193;48.216;-1.698;2023-04-25T00:07:53;3.10;;;2.55;;
16862;SDS011;52193;48.216;-1.698;2023-04-25T00:10:20;3.78;;;2.88;;
16862;SDS011;52193;48.216;-1.698;2023-04-25T00:12:47;4.22;;;2.72;;
16862;SDS011;52193;48.216;-1.698;2023-04-25T00:15:14;3.80;;;2.67;;
16862;SDS011;52193;48.216;-1.698;2023-04-25T00:17:41;4.32;;;2.90;;
16862;SDS011;52193;48.216;-1.698;2023-04-25T00:20:08;4.13;;;2.75;;
16862;SDS011;52193;48.216;-1.698;2023-04-25T00:22:36;4.93;;;3.55;;
16862;SDS011;52193;48.216;-1.698;2023-04-25T00:25:05;3.88;;;2.80;;
16862;SDS011;52193;48.216;-1.698;2023-04-25T00:27:32;4.88;;;2.63;;
16862;SDS011;52193;48.216;-1.698;2023-04-25T00:29:59;4.85;;;2.90;;
16862;SDS011;52193;48.216;-1.698;2023-04-25T00:32:26;5.55;;;2.90;;
16862;SDS011;52193;48.216;-1.698;2023-04-25T00:34:53;6.25;;;3.45;;
16862;SDS011;52193;48.216;-1.698;2023-04-25T00:37:22;5.82;;;3.47;;
16862;SDS011;52193;48.216;-1.698;2023-04-25T00:39:50;5.57;;;3.65;;
16862;SDS011;52193;48.216;-1.698;2023-04-25T00:42:20;5.85;;;3.67;;
16862;SDS011;52193;48.216;-1.698;2023-04-25T00:44:47;4.95;;;3.05;;
16862;SDS011;52193;48.216;-1.698;2023-04-25T00:47:14;3.65;;;2.90;;
16862;SDS011;52193;48.216;-1.698;2023-04-25T00:49:42;6.57;;;3.30;;
16862;SDS011;52193;48.216;-1.698;2023-04-25T00:52:09;7.05;;;3.80;;
16862;SDS011;52193;48.216;-1.698;2023-04-25T00:54:36;4.13;;;3.03;;
16862;SDS011;52193;48.216;-1.698;2023-04-25T00:57:04;5.55;;;3.25;;
16862;SDS011;52193;48.216;-1.698;2023-04-25T00:59:32;6.60;;;3.45;;
16862;SDS011;52193;48.216;-1.698;2023-04-25T01:02:00;7.38;;;3.50;;
16862;SDS011;52193;48.216;-1.698;2023-04-25T01:04:27;4.32;;;3.28;;
16862;SDS011;52193;48.216;-1.698;2023-04-25T01:06:54;5.03;;;3.20;;
16862;SDS011;52193;48.216;-1.698;2023-04-25T01:09:22;5.60;;;3.83;;
16862;SDS011;52193;48.216;-1.698;2023-04-25T01:11:49;4.80;;;3.38;;
16862;SDS011;52193;48.216;-1.698;2023-04-25T01:14:16;3.95;;;3.25;;
16862;SDS011;52193;48.216;-1.698;2023-04-25T01:16:44;4.40;;;3.42;;
16862;SDS011;52193;48.216;-1.698;2023-04-25T01:19:11;5.88;;;3.30;;
16862;SDS011;52193;48.216;-1.698;2023-04-25T01:21:45;5.53;;;3.60;;
16862;SDS011;52193;48.216;-1.698;2023-04-25T01:24:12;5.88;;;3.40;;
16862;SDS011;52193;48.216;-1.698;2023-04-25T01:26:39;4.38;;;3.20;;
16862;SDS011;52193;48.216;-1.698;2023-04-25T01:29:09;5.13;;;3.22;;
16862;SDS011;52193;48.216;-1.698;2023-04-25T01:31:36;4.55;;;3.15;;
16862;SDS011;52193;48.216;-1.698;2023-04-25T01:34:04;6.90;;;3.55;;
16862;SDS011;52193;48.216;-1.698;2023-04-25T01:36:31;4.38;;;3.17;;
16862;SDS011;52193;48.216;-1.698;2023-04-25T01:38:59;5.03;;;2.97;;
16862;SDS011;52193;48.216;-1.698;2023-04-25T01:41:27;7.85;;;3.42;;
16862;SDS011;52193;48.216;-1.698;2023-04-25T01:43:54;5.90;;;3.65;;
16862;SDS011;52193;48.216;-1.698;2023-04-25T01:46:21;4.65;;;3.10;;
16862;SDS011;52193;48.216;-1.698;2023-04-25T01:48:48;5.40;;;3.10;;
16862;SDS011;52193;48.216;-1.698;2023-04-25T01:51:15;5.50;;;3.10;;
16862;SDS011;52193;48.216;-1.698;2023-04-25T01:53:42;6.95;;;3.58;;
16862;SDS011;52193;48.216;-1.698;2023-04-25T01:56:11;5.03;;;3.03;;
16862;SDS011;52193;48.216;-1.698;2023-04-25T01:58:38;6.72;;;3.85;;
16862;SDS011;52193;48.216;-1.698;2023-04-25T02:01:05;4.82;;;3.13;;
16862;SDS011;52193;48.216;-1.698;2023-04-25T02:03:32;5.78;;;3.67;;
16862;SDS011;52193;48.216;-1.698;2023-04-25T02:05:59;5.22;;;3.67;;
16862;SDS011;52193;48.216;-1.698;2023-04-25T02:08:26;7.00;;;3.45;;
16862;SDS011;52193;48.216;-1.698;2023-04-25T02:10:53;6.25;;;3.70;;
16862;SDS011;52193;48.216;-1.698;2023-04-25T02:13:21;5.63;;;3.42;;
16862;SDS011;52193;48.216;-1.698;2023-04-25T02:15:48;6.72;;;3.92;;
16862;SDS011;52193;48.216;-1.698;2023-04-25T02:18:15;7.20;;;3.88;;
16862;SDS011;52193;48.216;-1.698;2023-04-25T02:20:42;7.82;;;4.10;;
16862;SDS011;52193;48.216;-1.698;2023-04-25T02:23:09;8.02;;;4.35;;
16862;SDS011;52193;48.216;-1.698;2023-04-25T02:25:36;6.13;;;3.47;;
16862;SDS011;52193;48.216;-1.698;2023-04-25T02:28:03;4.82;;;3.08;;
16862;SDS011;52193;48.216;-1.698;2023-04-25T02:30:31;4.40;;;2.70;;
16862;SDS011;52193;48.216;-1.698;2023-04-25T02:32:58;6.05;;;3.58;;
16862;SDS011;52193;48.216;-1.698;2023-04-25T02:35:25;3.90;;;2.90;;
16862;SDS011;52193;48.216;-1.698;2023-04-25T02:37:52;6.05;;;3.25;;
16862;SDS011;52193;48.216;-1.698;2023-04-25T02:40:19;5.93;;;3.40;;
16862;SDS011;52193;48.216;-1.698;2023-04-25T02:42:46;7.45;;;3.60;;
16862;SDS011;52193;48.216;-1.698;2023-04-25T02:45:13;6.05;;;3.45;;
16862;SDS011;52193;48.216;-1.698;2023-04-25T02:47:41;5.93;;;3.50;;
16862;SDS011;52193;48.216;-1.698;2023-04-25T02:50:08;7.18;;;3.60;;
16862;SDS011;52193;48.216;-1.698;2023-04-25T02:52:36;4.85;;;3.40;;
16862;SDS011;52193;48.216;-1.698;2023-04-25T02:55:03;6.85;;;3.10;;
16862;SDS011;52193;48.216;-1.698;2023-04-25T02:57:30;6.45;;;3.28;;
16862;SDS011;52193;48.216;-1.698;2023-04-25T02:59:57;3.72;;;2.72;;
16862;SDS011;52193;48.216;-1.698;2023-04-25T03:02:24;6.20;;;3.00;;
16862;SDS011;52193;48.216;-1.698;2023-04-25T03:04:52;6.32;;;3.58;;
16862;SDS011;52193;48.216;-1.698;2023-04-25T03:07:19;3.75;;;3.03;;
16862;SDS011;52193;48.216;-1.698;2023-04-25T03:09:46;4.22;;;3.45;;
16862;SDS011;52193;48.216;-1.698;2023-04-25T03:12:13;5.18;;;3.45;;
16862;SDS011;52193;48.216;-1.698;2023-04-25T03:14:40;7.15;;;3.28;;
16862;SDS011;52193;48.216;-1.698;2023-04-25T03:17:07;5.35;;;3.35;;
16862;SDS011;52193;48.216;-1.698;2023-04-25T03:19:33;5.10;;;3.22;;
16862;SDS011;52193;48.216;-1.698;2023-04-25T03:22:02;6.22;;;3.55;;
16862;SDS011;52193;48.216;-1.698;2023-04-25T03:24:29;7.60;;;3.75;;
16862;SDS011;52193;48.216;-1.698;2023-04-25T03:26:56;5.72;;;3.33;;
16862;SDS011;52193;48.216;-1.698;2023-04-25T03:29:22;6.05;;;3.25;;
16862;SDS011;52193;48.216;-1.698;2023-04-25T03:31:51;5.30;;;3.45;;
16862;SDS011;52193;48.216;-1.698;2023-04-25T03:34:18;6.72;;;3.28;;
16862;SDS011;52193;48.216;-1.698;2023-04-25T03:36:46;5.57;;;3.20;;
16862;SDS011;52193;48.216;-1.698;2023-04-25T03:39:14;5.78;;;3.42;;
16862;SDS011;52193;48.216;-1.698;2023-04-25T03:41:41;5.53;;;3.08;;
16862;SDS011;52193;48.216;-1.698;2023-04-25T03:44:08;5.88;;;3.60;;
16862;SDS011;52193;48.216;-1.698;2023-04-25T03:46:35;4.18;;;2.90;;
16862;SDS011;52193;48.216;-1.698;2023-04-25T03:49:02;5.68;;;3.53;;
16862;SDS011;52193;48.216;-1.698;2023-04-25T03:51:29;5.03;;;3.53;;
16862;SDS011;52193;48.216;-1.698;2023-04-25T03:53:56;5.85;;;3.45;;
16862;SDS011;52193;48.216;-1.698;2023-04-25T03:56:24;6.28;;;4.15;;
16862;SDS011;52193;48.216;-1.698;2023-04-25T03:58:51;7.40;;;3.50;;
16862;SDS011;52193;48.216;-1.698;2023-04-25T04:01:18;5.85;;;3.65;;
16862;SDS011;52193;48.216;-1.698;2023-04-25T04:03:45;5.00;;;3.25;;
16862;SDS011;52193;48.216;-1.698;2023-04-25T04:06:12;6.05;;;3.78;;
16862;SDS011;52193;48.216;-1.698;2023-04-25T04:08:40;5.18;;;3.38;;
16862;SDS011;52193;48.216;-1.698;2023-04-25T04:11:06;5.25;;;3.50;;
16862;SDS011;52193;48.216;-1.698;2023-04-25T04:13:35;4.93;;;3.30;;
16862;SDS011;52193;48.216;-1.698;2023-04-25T04:16:02;4.68;;;2.88;;
16862;SDS011;52193;48.216;-1.698;2023-04-25T04:18:29;4.53;;;3.58;;
16862;SDS011;52193;48.216;-1.698;2023-04-25T04:20:56;7.95;;;3.88;;
16862;SDS011;52193;48.216;-1.698;2023-04-25T04:23:23;4.72;;;3.38;;
16862;SDS011;52193;48.216;-1.698;2023-04-25T04:25:52;4.28;;;3.50;;
16862;SDS011;52193;48.216;-1.698;2023-04-25T04:28:19;6.53;;;3.60;;
16862;SDS011;52193;48.216;-1.698;2023-04-25T04:30:48;7.47;;;4.13;;
16862;SDS011;52193;48.216;-1.698;2023-04-25T04:33:16;5.85;;;3.60;;
16862;SDS011;52193;48.216;-1.698;2023-04-25T04:35:44;6.85;;;3.38;;
16862;SDS011;52193;48.216;-1.698;2023-04-25T04:38:11;4.75;;;3.33;;
16862;SDS011;52193;48.216;-1.698;2023-04-25T04:40:40;4.57;;;3.20;;
16862;SDS011;52193;48.216;-1.698;2023-04-25T04:43:08;4.75;;;3.25;;
16862;SDS011;52193;48.216;-1.698;2023-04-25T04:45:35;4.07;;;3.05;;
16862;SDS011;52193;48.216;-1.698;2023-04-25T04:48:05;4.55;;;3.53;;
16862;SDS011;52193;48.216;-1.698;2023-04-25T04:50:32;4.35;;;2.95;;
16862;SDS011;52193;48.216;-1.698;2023-04-25T04:52:59;5.10;;;3.53;;
16862;SDS011;52193;48.216;-1.698;2023-04-25T04:55:25;5.45;;;3.53;;
16862;SDS011;52193;48.216;-1.698;2023-04-25T04:57:52;4.90;;;3.38;;
16862;SDS011;52193;48.216;-1.698;2023-04-25T05:00:19;5.68;;;3.53;;
16862;SDS011;52193;48.216;-1.698;2023-04-25T05:02:46;4.82;;;3.33;;
16862;SDS011;52193;48.216;-1.698;2023-04-25T05:05:15;3.83;;;2.70;;
16862;SDS011;52193;48.216;-1.698;2023-04-25T05:07:42;5.03;;;3.55;;
16862;SDS011;52193;48.216;-1.698;2023-04-25T05:10:09;4.78;;;3.20;;
16862;SDS011;52193;48.216;-1.698;2023-04-25T05:12:36;4.32;;;3.38;;
16862;SDS011;52193;48.216;-1.698;2023-04-25T05:15:03;5.70;;;3.90;;
16862;SDS011;52193;48.216;-1.698;2023-04-25T05:17:31;4.63;;;3.35;;
16862;SDS011;52193;48.216;-1.698;2023-04-25T05:19:58;4.22;;;2.83;;
16862;SDS011;52193;48.216;-1.698;2023-04-25T05:22:27;4.55;;;3.00;;
16862;SDS011;52193;48.216;-1.698;2023-04-25T05:24:54;4.97;;;3.40;;
16862;SDS011;52193;48.216;-1.698;2023-04-25T05:27:20;3.95;;;3.55;;
16862;SDS011;52193;48.216;-1.698;2023-04-25T05:29:47;5.25;;;3.55;;
16862;SDS011;52193;48.216;-1.698;2023-04-25T05:32:14;4.82;;;3.72;;
16862;SDS011;52193;48.216;-1.698;2023-04-25T05:34:41;4.45;;;3.88;;
16862;SDS011;52193;48.216;-1.698;2023-04-25T05:37:08;4.05;;;3.50;;
16862;SDS011;52193;48.216;-1.698;2023-04-25T05:39:36;3.88;;;3.47;;
16862;SDS011;52193;48.216;-1.698;2023-04-25T05:42:03;4.93;;;3.67;;
16862;SDS011;52193;48.216;-1.698;2023-04-25T05:44:30;5.85;;;4.20;;
16862;SDS011;52193;48.216;-1.698;2023-04-25T05:46:57;5.95;;;4.18;;
16862;SDS011;52193;48.216;-1.698;2023-04-25T05:49:24;4.72;;;3.63;;
16862;SDS011;52193;48.216;-1.698;2023-04-25T05:51:51;4.88;;;3.60;;
16862;SDS011;52193;48.216;-1.698;2023-04-25T05:54:18;4.47;;;3.53;;
16862;SDS011;52193;48.216;-1.698;2023-04-25T05:56:46;3.90;;;3.53;;
16862;SDS011;52193;48.216;-1.698;2023-04-25T05:59:13;4.78;;;3.78;;
16862;SDS011;52193;48.216;-1.698;2023-04-25T06:01:40;4.30;;;3.90;;
16862;SDS011;52193;48.216;-1.698;2023-04-25T06:04:07;6.85;;;4.30;;
16862;SDS011;52193;48.216;-1.698;2023-04-25T06:06:34;5.55;;;4.03;;
16862;SDS011;52193;48.216;-1.698;2023-04-25T06:09:01;4.47;;;3.90;;
16862;SDS011;52193;48.216;-1.698;2023-04-25T06:11:28;5.72;;;4.47;;
16862;SDS011;52193;48.216;-1.698;2023-04-25T06:13:57;5.50;;;4.00;;
16862;SDS011;52193;48.216;-1.698;2023-04-25T06:16:24;4.80;;;4.30;;
16862;SDS011;52193;48.216;-1.698;2023-04-25T06:18:51;3.88;;;3.58;;
16862;SDS011;52193;48.216;-1.698;2023-04-25T06:21:18;4.43;;;4.03;;
16862;SDS011;52193;48.216;-1.698;2023-04-25T06:23:45;4.28;;;3.88;;
16862;SDS011;52193;48.216;-1.698;2023-04-25T06:26:12;5.03;;;4.50;;
16862;SDS011;52193;48.216;-1.698;2023-04-25T06:28:38;6.50;;;4.72;;
16862;SDS011;52193;48.216;-1.698;2023-04-25T06:31:07;6.15;;;4.30;;
16862;SDS011;52193;48.216;-1.698;2023-04-25T06:33:34;6.30;;;3.90;;
16862;SDS011;52193;48.216;-1.698;2023-04-25T06:36:01;4.53;;;4.13;;
16862;SDS011;52193;48.216;-1.698;2023-04-25T06:38:28;4.50;;;3.75;;
16862;SDS011;52193;48.216;-1.698;2023-04-25T06:40:56;5.18;;;3.97;;
16862;SDS011;52193;48.216;-1.698;2023-04-25T06:43:23;4.15;;;3.83;;
16862;SDS011;52193;48.216;-1.698;2023-04-25T06:45:49;4.32;;;3.92;;
16862;SDS011;52193;48.216;-1.698;2023-04-25T06:48:18;4.15;;;3.70;;
16862;SDS011;52193;48.216;-1.698;2023-04-25T06:50:45;3.75;;;3.47;;
16862;SDS011;52193;48.216;-1.698;2023-04-25T06:53:12;4.00;;;3.70;;
16862;SDS011;52193;48.216;-1.698;2023-04-25T06:55:39;5.28;;;4.65;;
16862;SDS011;52193;48.216;-1.698;2023-04-25T06:58:06;4.20;;;3.90;;
16862;SDS011;52193;48.216;-1.698;2023-04-25T07:00:33;5.28;;;4.00;;
16862;SDS011;52193;48.216;-1.698;2023-04-25T07:03:00;4.65;;;4.22;;
16862;SDS011;52193;48.216;-1.698;2023-04-25T07:05:28;6.10;;;5.03;;
16862;SDS011;52193;48.216;-1.698;2023-04-25T07:07:55;5.70;;;4.50;;
16862;SDS011;52193;48.216;-1.698;2023-04-25T07:10:22;4.97;;;4.57;;
16862;SDS011;52193;48.216;-1.698;2023-04-25T07:12:50;4.78;;;4.38;;
16862;SDS011;52193;48.216;-1.698;2023-04-25T07:15:17;5.72;;;5.18;;
16862;SDS011;52193;48.216;-1.698;2023-04-25T07:17:44;5.10;;;4.63;;
16862;SDS011;52193;48.216;-1.698;2023-04-25T07:20:11;4.40;;;4.10;;
16862;SDS011;52193;48.216;-1.698;2023-04-25T07:22:39;5.28;;;4.85;;
16862;SDS011;52193;48.216;-1.698;2023-04-25T07:25:06;5.53;;;5.10;;
16862;SDS011;52193;48.216;-1.698;2023-04-25T07:27:34;5.85;;;5.35;;
16862;SDS011;52193;48.216;-1.698;2023-04-25T07:30:01;5.45;;;5.05;;
16862;SDS011;52193;48.216;-1.698;2023-04-25T07:32:28;5.18;;;4.78;;
16862;SDS011;52193;48.216;-1.698;2023-04-25T07:34:55;6.10;;;5.57;;
16862;SDS011;52193;48.216;-1.698;2023-04-25T07:37:22;7.40;;;6.00;;
16862;SDS011;52193;48.216;-1.698;2023-04-25T07:39:51;6.65;;;6.03;;
16862;SDS011;52193;48.216;-1.698;2023-04-25T07:42:18;5.85;;;5.32;;
16862;SDS011;52193;48.216;-1.698;2023-04-25T07:44:46;6.32;;;5.82;;
16862;SDS011;52193;48.216;-1.698;2023-04-25T07:49:48;6.03;;;5.53;;
16862;SDS011;52193;48.216;-1.698;2023-04-25T07:52:15;5.10;;;4.80;;
16862;SDS011;52193;48.216;-1.698;2023-04-25T07:54:42;4.80;;;4.43;;
16862;SDS011;52193;48.216;-1.698;2023-04-25T07:57:10;5.25;;;4.75;;
16862;SDS011;52193;48.216;-1.698;2023-04-25T07:59:38;6.00;;;5.40;;
16862;SDS011;52193;48.216;-1.698;2023-04-25T08:02:05;5.55;;;5.15;;
16862;SDS011;52193;48.216;-1.698;2023-04-25T08:04:32;6.13;;;5.63;;
16862;SDS011;52193;48.216;-1.698;2023-04-25T08:06:59;6.82;;;6.05;;
16862;SDS011;52193;48.216;-1.698;2023-04-25T08:09:26;6.07;;;5.57;;
16862;SDS011;52193;48.216;-1.698;2023-04-25T08:11:54;5.40;;;5.10;;
16862;SDS011;52193;48.216;-1.698;2023-04-25T08:14:22;5.32;;;4.95;;
16862;SDS011;52193;48.216;-1.698;2023-04-25T08:16:49;5.72;;;5.22;;
16862;SDS011;52193;48.216;-1.698;2023-04-25T08:19:16;5.80;;;5.28;;
16862;SDS011;52193;48.216;-1.698;2023-04-25T08:21:43;5.35;;;4.95;;
16862;SDS011;52193;48.216;-1.698;2023-04-25T08:24:10;5.43;;;5.07;;
16862;SDS011;52193;48.216;-1.698;2023-04-25T08:26:37;5.75;;;5.35;;
16862;SDS011;52193;48.216;-1.698;2023-04-25T08:29:04;5.30;;;4.90;;
16862;SDS011;52193;48.216;-1.698;2023-04-25T08:31:32;5.88;;;5.47;;
16862;SDS011;52193;48.216;-1.698;2023-04-25T08:33:59;6.03;;;5.53;;
16862;SDS011;52193;48.216;-1.698;2023-04-25T08:36:26;5.60;;;5.30;;
16862;SDS011;52193;48.216;-1.698;2023-04-25T08:38:54;5.68;;;5.32;;
16862;SDS011;52193;48.216;-1.698;2023-04-25T08:41:21;5.25;;;4.85;;
16862;SDS011;52193;48.216;-1.698;2023-04-25T08:43:48;4.40;;;3.97;;
16862;SDS011;52193;48.216;-1.698;2023-04-25T08:46:17;3.85;;;3.65;;
16862;SDS011;52193;48.216;-1.698;2023-04-25T08:48:46;4.20;;;3.90;;
16862;SDS011;52193;48.216;-1.698;2023-04-25T08:51:15;3.75;;;3.45;;
16862;SDS011;52193;48.216;-1.698;2023-04-25T08:53:48;4.25;;;3.85;;
16862;SDS011;52193;48.216;-1.698;2023-04-25T08:56:16;3.63;;;3.33;;
16862;SDS011;52193;48.216;-1.698;2023-04-25T08:58:45;4.35;;;3.95;;
16862;SDS011;52193;48.216;-1.698;2023-04-25T09:01:14;4.50;;;4.20;;
16862;SDS011;52193;48.216;-1.698;2023-04-25T09:03:41;4.13;;;3.83;;
16862;SDS011;52193;48.216;-1.698;2023-04-25T09:06:11;3.83;;;3.58;;
16862;SDS011;52193;48.216;-1.698;2023-04-25T09:08:38;3.63;;;3.42;;
16862;SDS011;52193;48.216;-1.698;2023-04-25T09:11:06;4.72;;;4.40;;
16862;SDS011;52193;48.216;-1.698;2023-04-25T09:13:33;4.72;;;4.43;;
16862;SDS011;52193;48.216;-1.698;2023-04-25T09:16:00;4.22;;;4.00;;
16862;SDS011;52193;48.216;-1.698;2023-04-25T09:18:27;3.97;;;3.67;;
16862;SDS011;52193;48.216;-1.698;2023-04-25T09:20:56;4.75;;;4.35;;
16862;SDS011;52193;48.216;-1.698;2023-04-25T09:23:38;4.47;;;4.10;;
16862;SDS011;52193;48.216;-1.698;2023-04-25T09:26:07;3.85;;;3.55;;
16862;SDS011;52193;48.216;-1.698;2023-04-25T09:28:34;3.92;;;3.67;;
16862;SDS011;52193;48.216;-1.698;2023-04-25T09:31:03;3.63;;;3.33;;
16862;SDS011;52193;48.216;-1.698;2023-04-25T09:33:30;3.35;;;3.15;;
16862;SDS011;52193;48.216;-1.698;2023-04-25T09:36:01;3.42;;;3.13;;
16862;SDS011;52193;48.216;-1.698;2023-04-25T09:38:30;3.28;;;2.97;;
16862;SDS011;52193;48.216;-1.698;2023-04-25T09:40:59;3.83;;;3.53;;
16862;SDS011;52193;48.216;-1.698;2023-04-25T09:43:26;4.43;;;4.03;;
16862;SDS011;52193;48.216;-1.698;2023-04-25T09:45:54;3.30;;;3.10;;
16862;SDS011;52193;48.216;-1.698;2023-04-25T09:48:24;3.85;;;3.45;;
16862;SDS011;52193;48.216;-1.698;2023-04-25T09:51:05;3.92;;;3.63;;
16862;SDS011;52193;48.216;-1.698;2023-04-25T09:53:35;3.85;;;3.55;;
16862;SDS011;52193;48.216;-1.698;2023-04-25T09:56:03;4.00;;;3.70;;
16862;SDS011;52193;48.216;-1.698;2023-04-25T09:58:31;3.58;;;3.28;;
16862;SDS011;52193;48.216;-1.698;2023-04-25T10:01:00;4.30;;;3.15;;
16862;SDS011;52193;48.216;-1.698;2023-04-25T10:03:29;4.03;;;3.35;;
16862;SDS011;52193;48.216;-1.698;2023-04-25T10:05:57;3.10;;;2.90;;
16862;SDS011;52193;48.216;-1.698;2023-04-25T10:08:27;3.63;;;3.35;;
16862;SDS011;52193;48.216;-1.698;2023-04-25T10:11:00;3.35;;;3.05;;
16862;SDS011;52193;48.216;-1.698;2023-04-25T10:13:28;4.07;;;3.70;;
16862;SDS011;52193;48.216;-1.698;2023-04-25T10:15:57;2.85;;;2.65;;
16862;SDS011;52193;48.216;-1.698;2023-04-25T10:18:25;3.22;;;2.90;;
16862;SDS011;52193;48.216;-1.698;2023-04-25T10:20:53;4.75;;;2.90;;
16862;SDS011;52193;48.216;-1.698;2023-04-25T10:23:22;2.85;;;2.65;;
16862;SDS011;52193;48.216;-1.698;2023-04-25T10:25:50;3.60;;;3.30;;
16862;SDS011;52193;48.216;-1.698;2023-04-25T10:28:19;3.08;;;2.83;;
16862;SDS011;52193;48.216;-1.698;2023-04-25T10:30:59;2.90;;;2.70;;
16862;SDS011;52193;48.216;-1.698;2023-04-25T10:33:33;2.90;;;2.70;;
16862;SDS011;52193;48.216;-1.698;2023-04-25T10:36:11;2.83;;;2.63;;
16862;SDS011;52193;48.216;-1.698;2023-04-25T10:38:39;2.58;;;2.47;;
16862;SDS011;52193;48.216;-1.698;2023-04-25T10:41:08;3.38;;;3.08;;
16862;SDS011;52193;48.216;-1.698;2023-04-25T10:43:38;3.17;;;2.88;;
16862;SDS011;52193;48.216;-1.698;2023-04-25T10:46:15;2.53;;;2.33;;
16862;SDS011;52193;48.216;-1.698;2023-04-25T10:48:44;2.40;;;2.30;;
16862;SDS011;52193;48.216;-1.698;2023-04-25T10:51:16;3.03;;;2.83;;
16862;SDS011;52193;48.216;-1.698;2023-04-25T10:53:44;2.80;;;2.60;;
16862;SDS011;52193;48.216;-1.698;2023-04-25T10:56:13;2.67;;;2.58;;
16862;SDS011;52193;48.216;-1.698;2023-04-25T10:58:45;2.70;;;2.50;;
16862;SDS011;52193;48.216;-1.698;2023-04-25T11:01:12;2.70;;;2.50;;
16862;SDS011;52193;48.216;-1.698;2023-04-25T11:03:40;2.70;;;2.50;;
16862;SDS011;52193;48.216;-1.698;2023-04-25T11:06:11;2.65;;;2.45;;
16862;SDS011;52193;48.216;-1.698;2023-04-25T11:08:47;2.95;;;2.75;;
16862;SDS011;52193;48.216;-1.698;2023-04-25T11:11:16;3.08;;;2.42;;
16862;SDS011;52193;48.216;-1.698;2023-04-25T11:13:46;2.47;;;2.30;;
16862;SDS011;52193;48.216;-1.698;2023-04-25T11:16:14;2.40;;;2.22;;
16862;SDS011;52193;48.216;-1.698;2023-04-25T11:18:41;2.65;;;2.42;;
16862;SDS011;52193;48.216;-1.698;2023-04-25T11:21:08;3.03;;;2.72;;
16862;SDS011;52193;48.216;-1.698;2023-04-25T11:23:35;2.88;;;2.67;;
16862;SDS011;52193;48.216;-1.698;2023-04-25T11:26:03;2.80;;;2.60;;
16862;SDS011;52193;48.216;-1.698;2023-04-25T11:28:32;2.70;;;2.50;;
16862;SDS011;52193;48.216;-1.698;2023-04-25T11:31:02;2.65;;;2.45;;
16862;SDS011;52193;48.216;-1.698;2023-04-25T11:33:30;2.90;;;2.70;;
16862;SDS011;52193;48.216;-1.698;2023-04-25T11:36:09;3.50;;;3.00;;
16862;SDS011;52193;48.216;-1.698;2023-04-25T11:38:36;3.67;;;3.00;;
16862;SDS011;52193;48.216;-1.698;2023-04-25T11:41:03;2.92;;;2.72;;
16862;SDS011;52193;48.216;-1.698;2023-04-25T11:43:30;3.00;;;2.80;;
16862;SDS011;52193;48.216;-1.698;2023-04-25T11:45:57;2.92;;;2.70;;
16862;SDS011;52193;48.216;-1.698;2023-04-25T11:51:38;2.53;;;2.33;;
16862;SDS011;52193;48.216;-1.698;2023-04-25T11:57:01;3.15;;;2.67;;
16862;SDS011;52193;48.216;-1.698;2023-04-25T11:59:38;3.53;;;2.80;;
16862;SDS011;52193;48.216;-1.698;2023-04-25T12:11:56;5.35;;;3.10;;
16862;SDS011;52193;48.216;-1.698;2023-04-25T12:14:24;3.00;;;2.70;;
16862;SDS011;52193;48.216;-1.698;2023-04-25T12:16:58;2.35;;;2.20;;
16862;SDS011;52193;48.216;-1.698;2023-04-25T12:19:26;2.72;;;2.53;;
16862;SDS011;52193;48.216;-1.698;2023-04-25T12:21:59;2.78;;;2.58;;
16862;SDS011;52193;48.216;-1.698;2023-04-25T12:24:28;2.42;;;2.13;;
16862;SDS011;52193;48.216;-1.698;2023-04-25T12:27:00;2.97;;;2.78;;
16862;SDS011;52193;48.216;-1.698;2023-04-25T12:29:28;3.35;;;3.10;;
16862;SDS011;52193;48.216;-1.698;2023-04-25T12:31:56;2.88;;;2.67;;
16862;SDS011;52193;48.216;-1.698;2023-04-25T12:34:24;3.33;;;2.83;;
16862;SDS011;52193;48.216;-1.698;2023-04-25T12:36:51;8.10;;;3.45;;
16862;SDS011;52193;48.216;-1.698;2023-04-25T12:39:19;2.20;;;2.00;;
16862;SDS011;52193;48.216;-1.698;2023-04-25T12:41:46;2.50;;;2.30;;
16862;SDS011;52193;48.216;-1.698;2023-04-25T12:44:15;2.58;;;2.38;;
16862;SDS011;52193;48.216;-1.698;2023-04-25T12:46:42;2.50;;;2.30;;
16862;SDS011;52193;48.216;-1.698;2023-04-25T12:49:10;4.22;;;2.60;;
16862;SDS011;52193;48.216;-1.698;2023-04-25T12:51:37;7.53;;;3.10;;
16862;SDS011;52193;48.216;-1.698;2023-04-25T12:54:05;8.32;;;3.30;;
16862;SDS011;52193;48.216;-1.698;2023-04-25T12:56:32;10.50;;;3.63;;
16862;SDS011;52193;48.216;-1.698;2023-04-25T12:58:59;6.82;;;2.97;;
16862;SDS011;52193;48.216;-1.698;2023-04-25T13:01:27;2.38;;;2.13;;
16862;SDS011;52193;48.216;-1.698;2023-04-25T13:03:54;4.22;;;2.50;;
16862;SDS011;52193;48.216;-1.698;2023-04-25T13:06:21;2.92;;;2.20;;
16862;SDS011;52193;48.216;-1.698;2023-04-25T13:08:49;2.95;;;2.65;;
16862;SDS011;52193;48.216;-1.698;2023-04-25T13:11:16;2.33;;;2.13;;
16862;SDS011;52193;48.216;-1.698;2023-04-25T13:27:00;2.40;;;2.20;;
16862;SDS011;52193;48.216;-1.698;2023-04-25T13:29:27;3.15;;;2.60;;
16862;SDS011;52193;48.216;-1.698;2023-04-25T13:31:54;3.40;;;2.15;;
16862;SDS011;52193;48.216;-1.698;2023-04-25T13:40:45;5.95;;;2.78;;
16862;SDS011;52193;48.216;-1.698;2023-04-25T13:43:12;3.05;;;2.65;;
16862;SDS011;52193;48.216;-1.698;2023-04-25T13:45:39;3.08;;;2.15;;
16862;SDS011;52193;48.216;-1.698;2023-04-25T13:48:06;2.78;;;2.45;;
16862;SDS011;52193;48.216;-1.698;2023-04-25T13:50:33;2.40;;;2.20;;
16862;SDS011;52193;48.216;-1.698;2023-04-25T13:53:00;2.20;;;2.10;;
16862;SDS011;52193;48.216;-1.698;2023-04-25T13:55:28;2.35;;;2.15;;
16862;SDS011;52193;48.216;-1.698;2023-04-25T13:57:55;2.47;;;2.28;;
16862;SDS011;52193;48.216;-1.698;2023-04-25T14:00:22;3.00;;;2.47;;
16862;SDS011;52193;48.216;-1.698;2023-04-25T14:02:49;2.67;;;2.55;;
16862;SDS011;52193;48.216;-1.698;2023-04-25T14:05:16;2.03;;;1.92;;
16862;SDS011;52193;48.216;-1.698;2023-04-25T14:07:44;2.00;;;1.90;;
16862;SDS011;52193;48.216;-1.698;2023-04-25T14:10:11;1.83;;;1.73;;
16862;SDS011;52193;48.216;-1.698;2023-04-25T14:12:39;2.40;;;2.20;;
16862;SDS011;52193;48.216;-1.698;2023-04-25T14:15:06;2.50;;;2.30;;
16862;SDS011;52193;48.216;-1.698;2023-04-25T14:17:33;2.97;;;1.77;;
16862;SDS011;52193;48.216;-1.698;2023-04-25T14:20:01;2.15;;;2.05;;
16862;SDS011;52193;48.216;-1.698;2023-04-25T14:22:30;2.45;;;2.13;;
16862;SDS011;52193;48.216;-1.698;2023-04-25T14:24:57;2.60;;;2.40;;
16862;SDS011;52193;48.216;-1.698;2023-04-25T14:30:48;1.95;;;1.85;;
16862;SDS011;52193;48.216;-1.698;2023-04-25T14:33:15;2.28;;;2.08;;
16862;SDS011;52193;48.216;-1.698;2023-04-25T14:35:42;2.55;;;2.35;;
16862;SDS011;52193;48.216;-1.698;2023-04-25T14:38:09;2.60;;;2.40;;
16862;SDS011;52193;48.216;-1.698;2023-04-25T14:40:36;2.60;;;2.40;;
16862;SDS011;52193;48.216;-1.698;2023-04-25T14:43:03;5.68;;;2.75;;
16862;SDS011;52193;48.216;-1.698;2023-04-25T14:45:30;3.10;;;2.17;;
16862;SDS011;52193;48.216;-1.698;2023-04-25T14:47:58;2.80;;;2.60;;
16862;SDS011;52193;48.216;-1.698;2023-04-25T14:50:25;2.42;;;2.28;;
16862;SDS011;52193;48.216;-1.698;2023-04-25T14:52:52;3.00;;;2.80;;
16862;SDS011;52193;48.216;-1.698;2023-04-25T14:55:23;2.90;;;2.70;;
16862;SDS011;52193;48.216;-1.698;2023-04-25T14:57:50;2.90;;;2.70;;
16862;SDS011;52193;48.216;-1.698;2023-04-25T15:00:19;2.58;;;2.47;;
16862;SDS011;52193;48.216;-1.698;2023-04-25T15:02:47;3.10;;;2.90;;
16862;SDS011;52193;48.216;-1.698;2023-04-25T15:05:15;3.20;;;2.95;;
16862;SDS011;52193;48.216;-1.698;2023-04-25T15:07:42;2.30;;;2.20;;
16862;SDS011;52193;48.216;-1.698;2023-04-25T15:10:10;2.78;;;2.53;;
16862;SDS011;52193;48.216;-1.698;2023-04-25T15:12:38;2.72;;;2.53;;
16862;SDS011;52193;48.216;-1.698;2023-04-25T15:15:06;3.13;;;2.92;;
16862;SDS011;52193;48.216;-1.698;2023-04-25T15:17:36;2.50;;;2.40;;